sensor_id;sensor_type;location;lat;lon;timestamp;pressure;altitude;pressure_sealevel;temperature;humidity
19128;BME280;9696;53.686;10.094;2023-05-24T00:00:27;101758.31;;;9.71;100.00
19128;BME280;9696;53.686;10.094;2023-05-24T00:02:56;101763.69;;;9.82;100.00
19128;BME280;9696;53.686;10.094;2023-05-24T00:05:27;101756.97;;;9.78;100.00
19128;BME280;9696;53.686;10.094;2023-05-24T00:07:58;101756.13;;;9.77;100.00
19128;BME280;9696;53.686;10.094;2023-05-24T00:10:27;101758.97;;;9.87;100.00
19128;BME280;9696;53.686;10.094;2023-05-24T00:12:56;101756.03;;;9.79;100.00
19128;BME280;9696;53.686;10.094;2023-05-24T00:15:25;101748.91;;;9.81;100.00
19128;BME280;9696;53.686;10.094;2023-05-24T00:17:54;101746.28;;;9.81;100.00
19128;BME280;9696;53.686;10.094;2023-05-24T00:20:24;101752.56;;;9.78;100.00
19128;BME280;9696;53.686;10.094;2023-05-24T00:22:54;101744.09;;;9.87;100.00
19128;BME280;9696;53.686;10.094;2023-05-24T00:25:24;101738.09;;;9.73;100.00
19128;BME280;9696;53.686;10.094;2023-05-24T00:27:53;101745.25;;;9.83;100.00
19128;BME280;9696;53.686;10.094;2023-05-24T00:30:22;101750.88;;;9.77;100.00
19128;BME280;9696;53.686;10.094;2023-05-24T00:32:51;101749.66;;;9.83;100.00
19128;BME280;9696;53.686;10.094;2023-05-24T00:35:20;101751.63;;;9.79;100.00
19128;BME280;9696;53.686;10.094;2023-05-24T00:37:49;101748.81;;;9.82;100.00
19128;BME280;9696;53.686;10.094;2023-05-24T00:40:20;101748.47;;;9.74;100.00
19128;BME280;9696;53.686;10.094;2023-05-24T00:42:50;101744.50;;;9.81;100.00
19128;BME280;9696;53.686;10.094;2023-05-24T00:45:19;101747.22;;;9.80;100.00
19128;BME280;9696;53.686;10.094;2023-05-24T00:47:48;101737.47;;;9.82;100.00
19128;BME280;9696;53.686;10.094;2023-05-24T00:50:18;101743.66;;;9.81;100.00
19128;BME280;9696;53.686;10.094;2023-05-24T00:52:48;101744.09;;;9.87;100.00
19128;BME280;9696;53.686;10.094;2023-05-24T00:55:19;101738.72;;;9.89;100.00
19128;BME280;9696;53.686;10.094;2023-05-24T00:57:50;101734.97;;;9.93;100.00
19128;BME280;9696;53.686;10.094;2023-05-24T01:00:19;101733.28;;;9.92;100.00
19128;BME280;9696;53.686;10.094;2023-05-24T01:02:50;101734.66;;;9.85;100.00
19128;BME280;9696;53.686;10.094;2023-05-24T01:05:19;101725.75;;;10.00;100.00
19128;BME280;9696;53.686;10.094;2023-05-24T01:08:00;101731.94;;;9.86;100.00
19128;BME280;9696;53.686;10.094;2023-05-24T01:10:39;101727.09;;;9.80;100.00
19128;BME280;9696;53.686;10.094;2023-05-24T01:13:23;101725.97;;;9.97;100.00
19128;BME280;9696;53.686;10.094;2023-05-24T01:16:00;101726.03;;;9.95;100.00
19128;BME280;9696;53.686;10.094;2023-05-24T01:18:38;101728.06;;;10.05;100.00
19128;BME280;9696;53.686;10.094;2023-05-24T01:21:23;101732.88;;;9.98;100.00
19128;BME280;9696;53.686;10.094;2023-05-24T01:24:09;101733.53;;;10.14;100.00
19128;BME280;9696;53.686;10.094;2023-05-24T01:27:00;101725.88;;;9.99;100.00
19128;BME280;9696;53.686;10.094;2023-05-24T01:29:33;101723.75;;;9.91;100.00
19128;BME280;9696;53.686;10.094;2023-05-24T01:32:04;101729.63;;;9.94;100.00
19128;BME280;9696;53.686;10.094;2023-05-24T01:34:33;101727.94;;;9.93;100.00
19128;BME280;9696;53.686;10.094;2023-05-24T01:37:02;101721.13;;;10.04;100.00
19128;BME280;9696;53.686;10.094;2023-05-24T01:39:32;101721.34;;;10.01;100.00
19128;BME280;9696;53.686;10.094;2023-05-24T01:42:10;101720.00;;;9.95;100.00
19128;BME280;9696;53.686;10.094;2023-05-24T01:44:43;101720.94;;;10.07;100.00
19128;BME280;9696;53.686;10.094;2023-05-24T01:47:24;101723.25;;;9.99;100.00
19128;BME280;9696;53.686;10.094;2023-05-24T01:50:03;101713.91;;;9.94;100.00
19128;BME280;9696;53.686;10.094;2023-05-24T01:52:35;101723.25;;;9.99;100.00
19128;BME280;9696;53.686;10.094;2023-05-24T01:55:07;101722.41;;;9.98;100.00
19128;BME280;9696;53.686;10.094;2023-05-24T01:57:40;101721.78;;;9.94;100.00
19128;BME280;9696;53.686;10.094;2023-05-24T02:00:14;101719.16;;;9.94;100.00
19128;BME280;9696;53.686;10.094;2023-05-24T02:02:45;101721.78;;;9.94;100.00
19128;BME280;9696;53.686;10.094;2023-05-24T02:05:16;101720.72;;;10.10;100.00
19128;BME280;9696;53.686;10.094;2023-05-24T02:07:45;101720.72;;;10.10;100.00
19128;BME280;9696;53.686;10.094;2023-05-24T02:10:14;101718.00;;;9.99;100.00
19128;BME280;9696;53.686;10.094;2023-05-24T02:12:46;101719.97;;;10.08;100.00
19128;BME280;9696;53.686;10.094;2023-05-24T02:15:15;101728.34;;;10.00;100.00
19128;BME280;9696;53.686;10.094;2023-05-24T02:17:44;101723.88;;;10.02;100.00
19128;BME280;9696;53.686;10.094;2023-05-24T02:20:15;101719.47;;;10.03;100.00
19128;BME280;9696;53.686;10.094;2023-05-24T02:22:44;101725.75;;;10.13;100.00
19128;BME280;9696;53.686;10.094;2023-05-24T02:25:14;101725.34;;;10.06;100.00
19128;BME280;9696;53.686;10.094;2023-05-24T02:27:44;101733.19;;;10.06;100.00
19128;BME280;9696;53.686;10.094;2023-05-24T02:30:14;101729.53;;;10.09;100.00
19128;BME280;9696;53.686;10.094;2023-05-24T02:32:43;101721.78;;;10.07;100.00
19128;BME280;9696;53.686;10.094;2023-05-24T02:35:13;101725.38;;;10.19;100.00
19128;BME280;9696;53.686;10.094;2023-05-24T02:37:42;101728.00;;;10.19;100.00
19128;BME280;9696;53.686;10.094;2023-05-24T02:40:12;101732.50;;;10.17;100.00
19128;BME280;9696;53.686;10.094;2023-05-24T02:42:41;101733.34;;;10.17;100.00
19128;BME280;9696;53.686;10.094;2023-05-24T02:45:11;101734.44;;;10.13;100.00
19128;BME280;9696;53.686;10.094;2023-05-24T02:47:41;101736.44;;;10.10;100.00
19128;BME280;9696;53.686;10.094;2023-05-24T02:50:10;101734.03;;;10.07;100.00
19128;BME280;9696;53.686;10.094;2023-05-24T02:52:39;101739.69;;;10.13;100.00
19128;BME280;9696;53.686;10.094;2023-05-24T02:55:09;101740.34;;;10.17;100.00
19128;BME280;9696;53.686;10.094;2023-05-24T02:57:38;101739.69;;;10.13;100.00
19128;BME280;9696;53.686;10.094;2023-05-24T03:00:11;101733.19;;;10.06;100.00
19128;BME280;9696;53.686;10.094;2023-05-24T03:02:42;101729.44;;;10.10;100.00
19128;BME280;9696;53.686;10.094;2023-05-24T03:05:11;101736.34;;;10.24;100.00
19128;BME280;9696;53.686;10.094;2023-05-24T03:07:40;101730.81;;;10.16;100.00
19128;BME280;9696;53.686;10.094;2023-05-24T03:10:10;101723.03;;;10.02;100.00
19128;BME280;9696;53.686;10.094;2023-05-24T03:12:42;101728.91;;;10.05;100.00
19128;BME280;9696;53.686;10.094;2023-05-24T03:15:13;101729.03;;;10.16;100.00
19128;BME280;9696;53.686;10.094;2023-05-24T03:17:42;101732.25;;;10.07;100.00
19128;BME280;9696;53.686;10.094;2023-05-24T03:20:11;101737.41;;;10.21;100.00
19128;BME280;9696;53.686;10.094;2023-05-24T03:22:43;101733.13;;;10.20;100.00
19128;BME280;9696;53.686;10.094;2023-05-24T03:25:12;101729.22;;;10.13;100.00
19128;BME280;9696;53.686;10.094;2023-05-24T03:27:41;101732.91;;;10.23;100.00
19128;BME280;9696;53.686;10.094;2023-05-24T03:30:12;101729.78;;;10.18;100.00
19128;BME280;9696;53.686;10.094;2023-05-24T03:32:54;101731.66;;;10.16;100.00
19128;BME280;9696;53.686;10.094;2023-05-24T03:35:23;101732.19;;;10.21;100.00
19128;BME280;9696;53.686;10.094;2023-05-24T03:37:53;101726.84;;;10.23;100.00
19128;BME280;9696;53.686;10.094;2023-05-24T03:40:23;101730.81;;;10.16;100.00
19128;BME280;9696;53.686;10.094;2023-05-24T03:42:57;101736.97;;;10.27;100.00
19128;BME280;9696;53.686;10.094;2023-05-24T03:45:55;101740.56;;;10.26;100.00
19128;BME280;9696;53.686;10.094;2023-05-24T03:48:24;101740.44;;;10.15;100.00
19128;BME280;9696;53.686;10.094;2023-05-24T03:50:53;101739.28;;;10.19;100.00
19128;BME280;9696;53.686;10.094;2023-05-24T03:53:22;101747.88;;;10.09;100.00
19128;BME280;9696;53.686;10.094;2023-05-24T03:55:52;101747.16;;;10.19;100.00
19128;BME280;9696;53.686;10.094;2023-05-24T03:58:22;101751.69;;;10.30;100.00
19128;BME280;9696;53.686;10.094;2023-05-24T04:00:51;101743.38;;;10.11;100.00
19128;BME280;9696;53.686;10.094;2023-05-24T04:03:22;101743.59;;;10.33;100.00
19128;BME280;9696;53.686;10.094;2023-05-24T04:05:53;101739.09;;;10.22;100.00
19128;BME280;9696;53.686;10.094;2023-05-24T04:08:22;101742.66;;;10.34;100.00
19128;BME280;9696;53.686;10.094;2023-05-24T04:10:51;101739.63;;;10.15;100.00
19128;BME280;9696;53.686;10.094;2023-05-24T04:13:20;101739.41;;;10.18;100.00
19128;BME280;9696;53.686;10.094;2023-05-24T04:15:50;101739.63;;;10.15;100.00
19128;BME280;9696;53.686;10.094;2023-05-24T04:18:19;101750.31;;;10.24;100.00
19128;BME280;9696;53.686;10.094;2023-05-24T04:20:49;101749.38;;;10.25;100.00
19128;BME280;9696;53.686;10.094;2023-05-24T04:23:20;101745.59;;;10.29;100.00
19128;BME280;9696;53.686;10.094;2023-05-24T04:25:49;101746.00;;;10.11;100.00
19128;BME280;9696;53.686;10.094;2023-05-24T04:28:19;101754.38;;;10.03;100.00
19128;BME280;9696;53.686;10.094;2023-05-24T04:30:51;101754.06;;;10.08;100.00
19128;BME280;9696;53.686;10.094;2023-05-24T04:33:21;101757.19;;;9.87;100.00
19128;BME280;9696;53.686;10.094;2023-05-24T04:35:52;101764.44;;;9.97;100.00
19128;BME280;9696;53.686;10.094;2023-05-24T04:38:21;101773.94;;;9.85;100.00
19128;BME280;9696;53.686;10.094;2023-05-24T04:40:51;101775.03;;;9.95;100.00
19128;BME280;9696;53.686;10.094;2023-05-24T04:43:20;101789.63;;;9.99;100.00
19128;BME280;9696;53.686;10.094;2023-05-24T04:45:53;101788.88;;;10.10;100.00
19128;BME280;9696;53.686;10.094;2023-05-24T04:48:23;101786.44;;;9.94;100.00
19128;BME280;9696;53.686;10.094;2023-05-24T04:50:55;101792.78;;;10.17;100.00
19128;BME280;9696;53.686;10.094;2023-05-24T04:53:25;101795.28;;;10.06;100.00
19128;BME280;9696;53.686;10.094;2023-05-24T04:55:54;101796.53;;;10.13;100.00
19128;BME280;9696;53.686;10.094;2023-05-24T04:58:23;101796.00;;;10.08;100.00
19128;BME280;9696;53.686;10.094;2023-05-24T05:00:52;101795.69;;;10.12;100.00
19128;BME280;9696;53.686;10.094;2023-05-24T05:03:21;101792.19;;;10.26;100.00
19128;BME280;9696;53.686;10.094;2023-05-24T05:05:53;101803.06;;;10.20;100.00
19128;BME280;9696;53.686;10.094;2023-05-24T05:08:22;101802.44;;;10.16;100.00
19128;BME280;9696;53.686;10.094;2023-05-24T05:10:52;101812.22;;;10.27;100.00
19128;BME280;9696;53.686;10.094;2023-05-24T05:13:21;101817.41;;;10.14;100.00
19128;BME280;9696;53.686;10.094;2023-05-24T05:15:50;101809.59;;;10.27;100.00
19128;BME280;9696;53.686;10.094;2023-05-24T05:18:19;101804.56;;;10.36;100.00
19128;BME280;9696;53.686;10.094;2023-05-24T05:20:49;101806.00;;;10.66;100.00
19128;BME280;9696;53.686;10.094;2023-05-24T05:23:20;101805.28;;;10.64;100.00
19128;BME280;9696;53.686;10.094;2023-05-24T05:25:49;101794.47;;;10.56;100.00
19128;BME280;9696;53.686;10.094;2023-05-24T05:28:18;101788.38;;;11.17;100.00
19128;BME280;9696;53.686;10.094;2023-05-24T05:30:47;101782.38;;;11.15;100.00
19128;BME280;9696;53.686;10.094;2023-05-24T05:33:16;101781.91;;;10.97;100.00
19128;BME280;9696;53.686;10.094;2023-05-24T05:35:45;101787.41;;;10.81;100.00
19128;BME280;9696;53.686;10.094;2023-05-24T05:38:14;101794.97;;;10.86;100.00
19128;BME280;9696;53.686;10.094;2023-05-24T05:40:45;101801.56;;;10.92;100.00
19128;BME280;9696;53.686;10.094;2023-05-24T05:43:14;101806.94;;;10.77;100.00
19128;BME280;9696;53.686;10.094;2023-05-24T05:45:43;101809.66;;;10.88;100.00
19128;BME280;9696;53.686;10.094;2023-05-24T05:48:13;101808.09;;;10.73;100.00
19128;BME280;9696;53.686;10.094;2023-05-24T05:50:42;101810.59;;;10.75;100.00
19128;BME280;9696;53.686;10.094;2023-05-24T05:53:11;101815.22;;;10.84;100.00
19128;BME280;9696;53.686;10.094;2023-05-24T05:55:40;101812.91;;;10.79;100.00
19128;BME280;9696;53.686;10.094;2023-05-24T05:58:11;101817.53;;;10.76;100.00
19128;BME280;9696;53.686;10.094;2023-05-24T06:00:40;101825.50;;;10.87;100.00
19128;BME280;9696;53.686;10.094;2023-05-24T06:03:09;101826.03;;;10.79;100.00
19128;BME280;9696;53.686;10.094;2023-05-24T06:05:39;101833.50;;;10.85;100.00
19128;BME280;9696;53.686;10.094;2023-05-24T06:08:08;101837.06;;;10.84;100.00
19128;BME280;9696;53.686;10.094;2023-05-24T06:10:37;101836.19;;;10.97;100.00
19128;BME280;9696;53.686;10.094;2023-05-24T06:13:07;101828.88;;;10.89;100.00
19128;BME280;9696;53.686;10.094;2023-05-24T06:15:38;101832.63;;;10.98;100.00
19128;BME280;9696;53.686;10.094;2023-05-24T06:18:07;101826.41;;;10.99;100.00
19128;BME280;9696;53.686;10.094;2023-05-24T06:20:36;101830.56;;;10.90;100.00
19128;BME280;9696;53.686;10.094;2023-05-24T06:23:05;101840.97;;;11.15;100.00
19128;BME280;9696;53.686;10.094;2023-05-24T06:25:34;101840.88;;;11.17;100.00
19128;BME280;9696;53.686;10.094;2023-05-24T06:28:05;101841.66;;;11.30;100.00
19128;BME280;9696;53.686;10.094;2023-05-24T06:30:34;101848.09;;;11.26;100.00
19128;BME280;9696;53.686;10.094;2023-05-24T06:33:05;101847.72;;;11.43;100.00
19128;BME280;9696;53.686;10.094;2023-05-24T06:35:34;101856.69;;;11.64;100.00
19128;BME280;9696;53.686;10.094;2023-05-24T06:38:03;101851.53;;;11.63;100.00
19128;BME280;9696;53.686;10.094;2023-05-24T06:40:32;101855.06;;;11.51;100.00
19128;BME280;9696;53.686;10.094;2023-05-24T06:43:01;101855.38;;;11.82;100.00
19128;BME280;9696;53.686;10.094;2023-05-24T06:45:31;101859.16;;;12.02;100.00
19128;BME280;9696;53.686;10.094;2023-05-24T06:48:01;101865.56;;;11.87;100.00
19128;BME280;9696;53.686;10.094;2023-05-24T06:50:31;101859.69;;;11.84;100.00
19128;BME280;9696;53.686;10.094;2023-05-24T06:53:00;101860.91;;;11.54;100.00
19128;BME280;9696;53.686;10.094;2023-05-24T06:55:30;101868.50;;;11.82;100.00
19128;BME280;9696;53.686;10.094;2023-05-24T06:57:59;101863.03;;;11.86;100.00
19128;BME280;9696;53.686;10.094;2023-05-24T07:00:28;101864.13;;;11.70;100.00
19128;BME280;9696;53.686;10.094;2023-05-24T07:02:57;101853.88;;;12.02;100.00
19128;BME280;9696;53.686;10.094;2023-05-24T07:05:26;101862.84;;;12.00;100.00
19128;BME280;9696;53.686;10.094;2023-05-24T07:07:57;101861.13;;;12.22;100.00
19128;BME280;9696;53.686;10.094;2023-05-24T07:10:26;101861.34;;;12.08;100.00
19128;BME280;9696;53.686;10.094;2023-05-24T07:12:55;101857.66;;;12.22;100.00
19128;BME280;9696;53.686;10.094;2023-05-24T07:15:24;101858.78;;;11.96;100.00
19128;BME280;9696;53.686;10.094;2023-05-24T07:17:53;101866.72;;;11.83;100.00
19128;BME280;9696;53.686;10.094;2023-05-24T07:20:22;101863.09;;;11.97;100.00
19128;BME280;9696;53.686;10.094;2023-05-24T07:22:52;101873.94;;;11.92;100.00
19128;BME280;9696;53.686;10.094;2023-05-24T07:25:22;101869.72;;;11.90;100.00
19128;BME280;9696;53.686;10.094;2023-05-24T07:27:51;101871.41;;;11.91;100.00
19128;BME280;9696;53.686;10.094;2023-05-24T07:30:20;101876.75;;;12.13;100.00
19128;BME280;9696;53.686;10.094;2023-05-24T07:32:59;101881.34;;;12.22;100.00
19128;BME280;9696;53.686;10.094;2023-05-24T07:35:29;101873.34;;;12.23;100.00
19128;BME280;9696;53.686;10.094;2023-05-24T07:37:59;101880.66;;;11.96;100.00
19128;BME280;9696;53.686;10.094;2023-05-24T07:40:30;101880.31;;;12.01;100.00
19128;BME280;9696;53.686;10.094;2023-05-24T07:42:59;101883.13;;;11.87;100.00
19128;BME280;9696;53.686;10.094;2023-05-24T07:45:30;101887.66;;;11.85;100.00
19128;BME280;9696;53.686;10.094;2023-05-24T07:48:00;101888.50;;;11.85;100.00
19128;BME280;9696;53.686;10.094;2023-05-24T07:50:29;101888.66;;;11.95;100.00
19128;BME280;9696;53.686;10.094;2023-05-24T07:52:58;101895.66;;;12.18;100.00
19128;BME280;9696;53.686;10.094;2023-05-24T07:55:28;101898.16;;;12.08;100.00
19128;BME280;9696;53.686;10.094;2023-05-24T07:57:58;101897.97;;;12.22;100.00
19128;BME280;9696;53.686;10.094;2023-05-24T08:00:28;101898.63;;;12.13;100.00
19128;BME280;9696;53.686;10.094;2023-05-24T08:02:57;101891.47;;;12.15;100.00
19128;BME280;9696;53.686;10.094;2023-05-24T08:05:26;101896.69;;;12.28;100.00
19128;BME280;9696;53.686;10.094;2023-05-24T08:07:55;101899.09;;;12.42;100.00
19128;BME280;9696;53.686;10.094;2023-05-24T08:10:25;101900.91;;;12.53;100.00
19128;BME280;9696;53.686;10.094;2023-05-24T08:12:54;101899.31;;;12.28;100.00
19128;BME280;9696;53.686;10.094;2023-05-24T08:15:25;101904.41;;;12.18;100.00
19128;BME280;9696;53.686;10.094;2023-05-24T08:17:54;101898.56;;;12.26;100.00
19128;BME280;9696;53.686;10.094;2023-05-24T08:20:23;101907.97;;;12.17;100.00
19128;BME280;9696;53.686;10.094;2023-05-24T08:22:52;101914.31;;;12.61;100.00
19128;BME280;9696;53.686;10.094;2023-05-24T08:25:22;101912.28;;;12.64;100.00
19128;BME280;9696;53.686;10.094;2023-05-24T08:27:51;101909.25;;;12.36;100.00
19128;BME280;9696;53.686;10.094;2023-05-24T08:30:20;101908.84;;;12.29;100.00
19128;BME280;9696;53.686;10.094;2023-05-24T08:32:51;101907.84;;;12.43;100.00
19128;BME280;9696;53.686;10.094;2023-05-24T08:35:20;101913.31;;;12.28;100.00
19128;BME280;9696;53.686;10.094;2023-05-24T08:37:49;101910.09;;;12.36;100.00
19128;BME280;9696;53.686;10.094;2023-05-24T08:40:18;101909.31;;;12.80;100.00
19128;BME280;9696;53.686;10.094;2023-05-24T08:42:52;101898.97;;;13.23;100.00
19128;BME280;9696;53.686;10.094;2023-05-24T08:45:21;101899.53;;;13.49;100.00
19128;BME280;9696;53.686;10.094;2023-05-24T08:47:55;101894.63;;;13.44;100.00
19128;BME280;9696;53.686;10.094;2023-05-24T08:50:25;101898.22;;;12.99;100.00
19128;BME280;9696;53.686;10.094;2023-05-24T08:52:55;101903.53;;;14.07;100.00
19128;BME280;9696;53.686;10.094;2023-05-24T08:55:25;101902.16;;;14.24;100.00
19128;BME280;9696;53.686;10.094;2023-05-24T08:57:58;101906.16;;;14.18;100.00
19128;BME280;9696;53.686;10.094;2023-05-24T09:00:27;101903.53;;;14.18;100.00
19128;BME280;9696;53.686;10.094;2023-05-24T09:02:58;101902.31;;;14.11;100.00
19128;BME280;9696;53.686;10.094;2023-05-24T09:05:28;101907.81;;;14.19;100.00
19128;BME280;9696;53.686;10.094;2023-05-24T09:07:59;101895.13;;;13.81;100.00
19128;BME280;9696;53.686;10.094;2023-05-24T09:10:32;101913.19;;;14.29;100.00
19128;BME280;9696;53.686;10.094;2023-05-24T09:13:22;101912.91;;;13.68;100.00
19128;BME280;9696;53.686;10.094;2023-05-24T09:15:52;101921.19;;;14.38;100.00
19128;BME280;9696;53.686;10.094;2023-05-24T09:18:23;101911.16;;;14.53;100.00
19128;BME280;9696;53.686;10.094;2023-05-24T09:20:52;101920.63;;;14.24;100.00
19128;BME280;9696;53.686;10.094;2023-05-24T09:23:23;101912.22;;;14.50;100.00
19128;BME280;9696;53.686;10.094;2023-05-24T09:25:53;101910.81;;;14.46;100.00
19128;BME280;9696;53.686;10.094;2023-05-24T09:28:22;101913.03;;;14.41;100.00
19128;BME280;9696;53.686;10.094;2023-05-24T09:31:00;101912.59;;;14.87;100.00
19128;BME280;9696;53.686;10.094;2023-05-24T09:33:37;101922.97;;;14.79;100.00
19128;BME280;9696;53.686;10.094;2023-05-24T09:36:07;101916.25;;;14.96;100.00
19128;BME280;9696;53.686;10.094;2023-05-24T09:38:36;101911.66;;;14.47;100.00
19128;BME280;9696;53.686;10.094;2023-05-24T09:41:06;101921.97;;;14.50;100.00
19128;BME280;9696;53.686;10.094;2023-05-24T09:43:47;101926.06;;;14.11;100.00
19128;BME280;9696;53.686;10.094;2023-05-24T09:46:17;101932.13;;;14.02;100.00
19128;BME280;9696;53.686;10.094;2023-05-24T09:48:59;101939.31;;;14.00;100.00
19128;BME280;9696;53.686;10.094;2023-05-24T09:51:30;101936.41;;;14.03;100.00
19128;BME280;9696;53.686;10.094;2023-05-24T09:54:01;101937.81;;;14.18;100.00
19128;BME280;9696;53.686;10.094;2023-05-24T09:56:32;101938.31;;;14.12;100.00
19128;BME280;9696;53.686;10.094;2023-05-24T09:59:06;101947.22;;;14.32;100.00
19128;BME280;9696;53.686;10.094;2023-05-24T10:01:36;101944.97;;;14.27;100.00
19128;BME280;9696;53.686;10.094;2023-05-24T10:04:07;101944.47;;;14.01;100.00
19128;BME280;9696;53.686;10.094;2023-05-24T10:06:39;101948.31;;;13.97;100.00
19128;BME280;9696;53.686;10.094;2023-05-24T10:09:10;101947.03;;;14.24;100.00
19128;BME280;9696;53.686;10.094;2023-05-24T10:11:41;101951.59;;;13.90;100.00
19128;BME280;9696;53.686;10.094;2023-05-24T10:14:11;101954.66;;;14.06;100.00
19128;BME280;9696;53.686;10.094;2023-05-24T10:16:40;101956.28;;;13.86;100.00
19128;BME280;9696;53.686;10.094;2023-05-24T10:19:11;101955.50;;;13.95;100.00
19128;BME280;9696;53.686;10.094;2023-05-24T10:21:41;101948.97;;;14.22;100.00
19128;BME280;9696;53.686;10.094;2023-05-24T10:24:12;101949.72;;;14.44;100.00
19128;BME280;9696;53.686;10.094;2023-05-24T10:26:41;101947.47;;;14.40;100.00
19128;BME280;9696;53.686;10.094;2023-05-24T10:29:18;101948.78;;;14.45;100.00
19128;BME280;9696;53.686;10.094;2023-05-24T10:31:53;101953.84;;;14.79;100.00
19128;BME280;9696;53.686;10.094;2023-05-24T10:34:24;101950.91;;;15.02;100.00
19128;BME280;9696;53.686;10.094;2023-05-24T10:36:53;101947.63;;;15.10;100.00
19128;BME280;9696;53.686;10.094;2023-05-24T10:39:24;101943.81;;;15.64;100.00
19128;BME280;9696;53.686;10.094;2023-05-24T10:41:55;101944.53;;;15.85;100.00
19128;BME280;9696;53.686;10.094;2023-05-24T10:44:28;101941.59;;;15.69;100.00
19128;BME280;9696;53.686;10.094;2023-05-24T10:47:08;101937.44;;;15.85;100.00
19128;BME280;9696;53.686;10.094;2023-05-24T10:49:47;101938.69;;;15.81;100.00
19128;BME280;9696;53.686;10.094;2023-05-24T10:52:18;101937.97;;;15.70;100.00
19128;BME280;9696;53.686;10.094;2023-05-24T10:55:04;101933.69;;;16.17;100.00
19128;BME280;9696;53.686;10.094;2023-05-24T10:57:35;101931.75;;;15.90;100.00
19128;BME280;9696;53.686;10.094;2023-05-24T11:00:26;101930.66;;;16.02;100.00
19128;BME280;9696;53.686;10.094;2023-05-24T11:03:00;101922.84;;;16.29;100.00
19128;BME280;9696;53.686;10.094;2023-05-24T11:05:51;101927.72;;;16.15;100.00
19128;BME280;9696;53.686;10.094;2023-05-24T11:08:23;101927.00;;;16.32;100.00
19128;BME280;9696;53.686;10.094;2023-05-24T11:11:06;101924.22;;;15.85;100.00
19128;BME280;9696;53.686;10.094;2023-05-24T11:13:40;101921.59;;;15.95;100.00
19128;BME280;9696;53.686;10.094;2023-05-24T11:16:35;101926.16;;;16.50;100.00
19128;BME280;9696;53.686;10.094;2023-05-24T11:19:16;101928.13;;;16.29;100.00
19128;BME280;9696;53.686;10.094;2023-05-24T11:21:46;101927.81;;;16.80;100.00
19128;BME280;9696;53.686;10.094;2023-05-24T11:24:16;101933.84;;;16.25;100.00
19128;BME280;9696;53.686;10.094;2023-05-24T11:26:45;101933.16;;;16.61;100.00
19128;BME280;9696;53.686;10.094;2023-05-24T11:29:15;101933.16;;;16.61;100.00
19128;BME280;9696;53.686;10.094;2023-05-24T11:31:51;101929.22;;;16.36;100.00
19128;BME280;9696;53.686;10.094;2023-05-24T11:34:21;101935.09;;;16.30;100.00
19128;BME280;9696;53.686;10.094;2023-05-24T11:36:51;101929.66;;;17.07;100.00
19128;BME280;9696;53.686;10.094;2023-05-24T11:39:21;101932.25;;;16.89;100.00
19128;BME280;9696;53.686;10.094;2023-05-24T11:41:53;101936.06;;;16.68;100.00
19128;BME280;9696;53.686;10.094;2023-05-24T11:44:23;101936.94;;;16.59;100.00
19128;BME280;9696;53.686;10.094;2023-05-24T11:46:58;101935.09;;;16.69;100.00
19128;BME280;9696;53.686;10.094;2023-05-24T11:49:28;101938.47;;;16.23;100.00
19128;BME280;9696;53.686;10.094;2023-05-24T11:51:58;101940.13;;;16.33;100.00
19128;BME280;9696;53.686;10.094;2023-05-24T11:54:28;101942.91;;;16.41;100.00
19128;BME280;9696;53.686;10.094;2023-05-24T11:56:59;101945.25;;;16.44;100.00
19128;BME280;9696;53.686;10.094;2023-05-24T11:59:29;101948.19;;;16.32;100.00
19128;BME280;9696;53.686;10.094;2023-05-24T12:02:01;101946.03;;;16.93;100.00
19128;BME280;9696;53.686;10.094;2023-05-24T12:04:31;101941.75;;;16.82;100.00
19128;BME280;9696;53.686;10.094;2023-05-24T12:07:01;101949.59;;;16.36;100.00
19128;BME280;9696;53.686;10.094;2023-05-24T12:09:31;101948.06;;;16.33;100.00
19128;BME280;9696;53.686;10.094;2023-05-24T12:12:00;101951.69;;;16.42;100.00
19128;BME280;9696;53.686;10.094;2023-05-24T12:14:31;101954.31;;;16.51;100.00
19128;BME280;9696;53.686;10.094;2023-05-24T12:17:03;101965.63;;;16.06;100.00
19128;BME280;9696;53.686;10.094;2023-05-24T12:19:32;101961.16;;;16.64;100.00
19128;BME280;9696;53.686;10.094;2023-05-24T12:22:04;101962.41;;;16.21;100.00
19128;BME280;9696;53.686;10.094;2023-05-24T12:24:35;101960.47;;;16.33;100.00
19128;BME280;9696;53.686;10.094;2023-05-24T12:27:05;101963.38;;;16.20;100.00
19128;BME280;9696;53.686;10.094;2023-05-24T12:29:37;101966.59;;;16.14;100.00
19128;BME280;9696;53.686;10.094;2023-05-24T12:32:10;101965.63;;;16.34;100.00
19128;BME280;9696;53.686;10.094;2023-05-24T12:34:43;101956.59;;;16.27;100.00
19128;BME280;9696;53.686;10.094;2023-05-24T12:37:12;101968.69;;;16.11;100.00
19128;BME280;9696;53.686;10.094;2023-05-24T12:39:42;101975.81;;;16.29;100.00
19128;BME280;9696;53.686;10.094;2023-05-24T12:42:12;101968.13;;;16.74;100.00
19128;BME280;9696;53.686;10.094;2023-05-24T12:44:41;101969.09;;;16.25;100.00
19128;BME280;9696;53.686;10.094;2023-05-24T12:47:13;101977.06;;;16.54;100.00
19128;BME280;9696;53.686;10.094;2023-05-24T12:49:42;101971.47;;;16.76;100.00
19128;BME280;9696;53.686;10.094;2023-05-24T12:52:12;101977.28;;;16.99;100.00
19128;BME280;9696;53.686;10.094;2023-05-24T12:54:41;101971.91;;;16.62;100.00
19128;BME280;9696;53.686;10.094;2023-05-24T12:57:10;101967.16;;;16.18;100.00
19128;BME280;9696;53.686;10.094;2023-05-24T12:59:39;101974.13;;;16.86;100.00